sensor_id;sensor_type;location;lat;lon;timestamp;temperature;humidity
21167;DHT22;10741;52.272;9.580;2022-09-02T00:00:55;12.40;99.90
21167;DHT22;10741;52.272;9.580;2022-09-02T00:03:32;12.40;99.90
21167;DHT22;10741;52.272;9.580;2022-09-02T00:05:59;12.40;99.90
21167;DHT22;10741;52.272;9.580;2022-09-02T00:08:26;12.40;99.90
21167;DHT22;10741;52.272;9.580;2022-09-02T00:10:52;12.40;99.90
21167;DHT22;10741;52.272;9.580;2022-09-02T00:13:18;12.30;99.90
21167;DHT22;10741;52.272;9.580;2022-09-02T00:15:46;12.30;99.90
21167;DHT22;10741;52.272;9.580;2022-09-02T00:18:12;12.30;99.90
21167;DHT22;10741;52.272;9.580;2022-09-02T00:20:41;12.30;99.90
21167;DHT22;10741;52.272;9.580;2022-09-02T00:23:08;12.20;99.90
21167;DHT22;10741;52.272;9.580;2022-09-02T00:25:36;12.20;99.90
21167;DHT22;10741;52.272;9.580;2022-09-02T00:28:02;12.20;99.90
21167;DHT22;10741;52.272;9.580;2022-09-02T00:30:28;12.20;99.90
21167;DHT22;10741;52.272;9.580;2022-09-02T00:32:54;12.10;99.90
21167;DHT22;10741;52.272;9.580;2022-09-02T00:35:20;12.10;99.90
21167;DHT22;10741;52.272;9.580;2022-09-02T00:37:46;12.10;99.90
21167;DHT22;10741;52.272;9.580;2022-09-02T00:40:12;12.10;99.90
21167;DHT22;10741;52.272;9.580;2022-09-02T00:42:39;12.00;99.90
21167;DHT22;10741;52.272;9.580;2022-09-02T00:45:06;12.00;99.90
21167;DHT22;10741;52.272;9.580;2022-09-02T00:47:32;12.00;99.90
21167;DHT22;10741;52.272;9.580;2022-09-02T00:49:59;12.00;99.90
21167;DHT22;10741;52.272;9.580;2022-09-02T00:52:32;11.90;99.90
21167;DHT22;10741;52.272;9.580;2022-09-02T00:55:03;11.90;99.90
21167;DHT22;10741;52.272;9.580;2022-09-02T00:57:39;11.90;99.90
21167;DHT22;10741;52.272;9.580;2022-09-02T01:00:16;11.90;99.90
21167;DHT22;10741;52.272;9.580;2022-09-02T01:02:45;11.80;99.90
21167;DHT22;10741;52.272;9.580;2022-09-02T01:05:13;11.80;99.90
21167;DHT22;10741;52.272;9.580;2022-09-02T01:07:40;11.70;99.90
21167;DHT22;10741;52.272;9.580;2022-09-02T01:10:09;11.70;99.90
21167;DHT22;10741;52.272;9.580;2022-09-02T01:12:36;11.70;99.90
21167;DHT22;10741;52.272;9.580;2022-09-02T01:15:04;11.60;99.90
21167;DHT22;10741;52.272;9.580;2022-09-02T01:17:31;11.60;99.90
21167;DHT22;10741;52.272;9.580;2022-09-02T01:20:04;11.50;99.90
21167;DHT22;10741;52.272;9.580;2022-09-02T01:22:31;11.40;99.90
21167;DHT22;10741;52.272;9.580;2022-09-02T01:25:04;11.40;99.90
21167;DHT22;10741;52.272;9.580;2022-09-02T01:27:30;11.30;99.90
21167;DHT22;10741;52.272;9.580;2022-09-02T01:29:58;11.30;99.90
21167;DHT22;10741;52.272;9.580;2022-09-02T01:32:26;11.20;99.90
21167;DHT22;10741;52.272;9.580;2022-09-02T01:34:52;11.20;99.90
21167;DHT22;10741;52.272;9.580;2022-09-02T01:37:19;11.10;99.90
21167;DHT22;10741;52.272;9.580;2022-09-02T01:39:45;11.10;99.90
21167;DHT22;10741;52.272;9.580;2022-09-02T01:42:12;11.10;99.90
21167;DHT22;10741;52.272;9.580;2022-09-02T01:44:38;11.00;99.90
21167;DHT22;10741;52.272;9.580;2022-09-02T01:47:12;11.00;99.90
21167;DHT22;10741;52.272;9.580;2022-09-02T01:49:38;10.90;99.90
21167;DHT22;10741;52.272;9.580;2022-09-02T01:52:04;10.90;99.90
21167;DHT22;10741;52.272;9.580;2022-09-02T01:54:30;10.90;99.90
21167;DHT22;10741;52.272;9.580;2022-09-02T01:56:55;10.80;99.90
21167;DHT22;10741;52.272;9.580;2022-09-02T01:59:21;10.80;99.90
21167;DHT22;10741;52.272;9.580;2022-09-02T02:01:47;10.80;99.90
21167;DHT22;10741;52.272;9.580;2022-09-02T02:04:13;10.80;99.90
21167;DHT22;10741;52.272;9.580;2022-09-02T02:06:40;10.80;99.90
21167;DHT22;10741;52.272;9.580;2022-09-02T02:09:08;10.70;99.90
21167;DHT22;10741;52.272;9.580;2022-09-02T02:11:35;10.70;99.90
21167;DHT22;10741;52.272;9.580;2022-09-02T02:14:01;10.70;99.90
21167;DHT22;10741;52.272;9.580;2022-09-02T02:16:27;10.70;99.90
21167;DHT22;10741;52.272;9.580;2022-09-02T02:18:52;10.60;99.90
21167;DHT22;10741;52.272;9.580;2022-09-02T02:21:18;10.70;99.90
21167;DHT22;10741;52.272;9.580;2022-09-02T02:23:44;10.60;99.90
21167;DHT22;10741;52.272;9.580;2022-09-02T02:26:10;10.60;99.90
21167;DHT22;10741;52.272;9.580;2022-09-02T02:28:36;10.60;99.90
21167;DHT22;10741;52.272;9.580;2022-09-02T02:31:02;10.60;99.90
21167;DHT22;10741;52.272;9.580;2022-09-02T02:33:28;10.50;99.90
21167;DHT22;10741;52.272;9.580;2022-09-02T02:35:54;10.50;99.90
21167;DHT22;10741;52.272;9.580;2022-09-02T02:38:20;10.50;99.90
21167;DHT22;10741;52.272;9.580;2022-09-02T02:40:46;10.50;99.90
21167;DHT22;10741;52.272;9.580;2022-09-02T02:43:12;10.50;99.90
21167;DHT22;10741;52.272;9.580;2022-09-02T02:45:38;10.50;99.90
21167;DHT22;10741;52.272;9.580;2022-09-02T02:48:04;10.50;99.90
21167;DHT22;10741;52.272;9.580;2022-09-02T02:50:30;10.40;99.90
21167;DHT22;10741;52.272;9.580;2022-09-02T02:52:56;10.40;99.90
21167;DHT22;10741;52.272;9.580;2022-09-02T02:55:23;10.40;99.90
21167;DHT22;10741;52.272;9.580;2022-09-02T02:57:50;10.40;99.90
21167;DHT22;10741;52.272;9.580;2022-09-02T03:00:23;10.40;99.90
21167;DHT22;10741;52.272;9.580;2022-09-02T03:02:51;10.40;99.90
21167;DHT22;10741;52.272;9.580;2022-09-02T03:05:19;10.30;99.90
21167;DHT22;10741;52.272;9.580;2022-09-02T03:07:44;10.30;99.90
21167;DHT22;10741;52.272;9.580;2022-09-02T03:10:11;10.30;99.90
21167;DHT22;10741;52.272;9.580;2022-09-02T03:12:37;10.30;99.90
21167;DHT22;10741;52.272;9.580;2022-09-02T03:15:05;10.30;99.90
21167;DHT22;10741;52.272;9.580;2022-09-02T03:17:31;10.30;99.90
21167;DHT22;10741;52.272;9.580;2022-09-02T03:19:57;10.30;99.90
21167;DHT22;10741;52.272;9.580;2022-09-02T03:22:24;10.30;99.90
21167;DHT22;10741;52.272;9.580;2022-09-02T03:24:50;10.20;99.90
21167;DHT22;10741;52.272;9.580;2022-09-02T03:27:16;10.20;99.90
21167;DHT22;10741;52.272;9.580;2022-09-02T03:29:42;10.10;99.90
21167;DHT22;10741;52.272;9.580;2022-09-02T03:32:09;10.10;99.90
21167;DHT22;10741;52.272;9.580;2022-09-02T03:34:35;10.10;99.90
21167;DHT22;10741;52.272;9.580;2022-09-02T03:37:01;10.10;99.90
21167;DHT22;10741;52.272;9.580;2022-09-02T03:39:27;10.10;99.90
21167;DHT22;10741;52.272;9.580;2022-09-02T03:41:53;10.10;99.90
21167;DHT22;10741;52.272;9.580;2022-09-02T03:44:19;10.10;99.90
21167;DHT22;10741;52.272;9.580;2022-09-02T03:46:45;10.10;99.90
21167;DHT22;10741;52.272;9.580;2022-09-02T03:49:11;10.10;99.90
21167;DHT22;10741;52.272;9.580;2022-09-02T03:51:41;10.20;99.90
21167;DHT22;10741;52.272;9.580;2022-09-02T03:54:08;10.20;99.90
21167;DHT22;10741;52.272;9.580;2022-09-02T03:56:35;9.60;99.90
21167;DHT22;10741;52.272;9.580;2022-09-02T03:59:01;10.20;99.90
21167;DHT22;10741;52.272;9.580;2022-09-02T04:01:27;10.20;99.90
21167;DHT22;10741;52.272;9.580;2022-09-02T04:03:53;10.20;99.90
21167;DHT22;10741;52.272;9.580;2022-09-02T04:06:20;10.10;99.90
21167;DHT22;10741;52.272;9.580;2022-09-02T04:08:46;10.10;99.90
21167;DHT22;10741;52.272;9.580;2022-09-02T04:11:16;10.10;99.90
21167;DHT22;10741;52.272;9.580;2022-09-02T04:13:43;10.10;99.90
21167;DHT22;10741;52.272;9.580;2022-09-02T04:16:12;10.10;99.90
21167;DHT22;10741;52.272;9.580;2022-09-02T04:18:38;10.10;99.90
21167;DHT22;10741;52.272;9.580;2022-09-02T04:21:05;10.10;99.90
21167;DHT22;10741;52.272;9.580;2022-09-02T04:23:31;10.10;99.90
21167;DHT22;10741;52.272;9.580;2022-09-02T04:26:03;10.10;99.90
21167;DHT22;10741;52.272;9.580;2022-09-02T04:28:29;10.20;99.90
21167;DHT22;10741;52.272;9.580;2022-09-02T04:30:55;10.10;99.90
21167;DHT22;10741;52.272;9.580;2022-09-02T04:33:21;10.10;99.90
21167;DHT22;10741;52.272;9.580;2022-09-02T04:35:47;10.10;99.90
21167;DHT22;10741;52.272;9.580;2022-09-02T04:38:16;10.10;99.90
21167;DHT22;10741;52.272;9.580;2022-09-02T04:40:46;10.10;99.90
21167;DHT22;10741;52.272;9.580;2022-09-02T04:43:12;10.00;99.90
21167;DHT22;10741;52.272;9.580;2022-09-02T04:45:43;10.00;99.90
21167;DHT22;10741;52.272;9.580;2022-09-02T04:48:10;10.00;99.90
21167;DHT22;10741;52.272;9.580;2022-09-02T04:50:37;10.00;99.90
21167;DHT22;10741;52.272;9.580;2022-09-02T04:53:04;9.90;99.90
21167;DHT22;10741;52.272;9.580;2022-09-02T04:55:31;9.90;99.90
21167;DHT22;10741;52.272;9.580;2022-09-02T04:57:57;9.90;99.90
21167;DHT22;10741;52.272;9.580;2022-09-02T05:00:23;10.00;99.90
21167;DHT22;10741;52.272;9.580;2022-09-02T05:02:50;9.90;99.90
21167;DHT22;10741;52.272;9.580;2022-09-02T05:05:17;10.00;99.90
21167;DHT22;10741;52.272;9.580;2022-09-02T05:07:43;10.00;99.90
21167;DHT22;10741;52.272;9.580;2022-09-02T05:10:09;10.10;99.90
21167;DHT22;10741;52.272;9.580;2022-09-02T05:12:38;10.20;99.90
21167;DHT22;10741;52.272;9.580;2022-09-02T05:15:05;10.20;99.90
21167;DHT22;10741;52.272;9.580;2022-09-02T05:17:31;10.20;99.90
21167;DHT22;10741;52.272;9.580;2022-09-02T05:20:00;10.30;99.90
21167;DHT22;10741;52.272;9.580;2022-09-02T05:22:26;10.30;99.90
21167;DHT22;10741;52.272;9.580;2022-09-02T05:24:55;10.40;99.90
21167;DHT22;10741;52.272;9.580;2022-09-02T05:27:22;10.50;99.90
21167;DHT22;10741;52.272;9.580;2022-09-02T05:29:48;10.50;99.90
21167;DHT22;10741;52.272;9.580;2022-09-02T05:32:14;10.60;99.90
21167;DHT22;10741;52.272;9.580;2022-09-02T05:34:40;10.60;99.90
21167;DHT22;10741;52.272;9.580;2022-09-02T05:37:06;10.70;99.90
21167;DHT22;10741;52.272;9.580;2022-09-02T05:39:32;10.80;99.90
21167;DHT22;10741;52.272;9.580;2022-09-02T05:41:58;10.90;99.90
21167;DHT22;10741;52.272;9.580;2022-09-02T05:44:24;11.00;99.90
21167;DHT22;10741;52.272;9.580;2022-09-02T05:46:50;11.00;99.90
21167;DHT22;10741;52.272;9.580;2022-09-02T05:49:16;11.10;99.90
21167;DHT22;10741;52.272;9.580;2022-09-02T05:51:54;11.20;99.90
21167;DHT22;10741;52.272;9.580;2022-09-02T05:54:26;11.40;99.90
21167;DHT22;10741;52.272;9.580;2022-09-02T05:56:55;11.50;99.90
21167;DHT22;10741;52.272;9.580;2022-09-02T05:59:23;11.70;99.90
21167;DHT22;10741;52.272;9.580;2022-09-02T06:01:52;11.80;99.90
21167;DHT22;10741;52.272;9.580;2022-09-02T06:04:19;11.90;99.90
21167;DHT22;10741;52.272;9.580;2022-09-02T06:06:47;12.00;99.90
21167;DHT22;10741;52.272;9.580;2022-09-02T06:09:15;12.20;99.90
21167;DHT22;10741;52.272;9.580;2022-09-02T06:11:42;12.40;99.90
21167;DHT22;10741;52.272;9.580;2022-09-02T06:14:11;12.50;99.90
21167;DHT22;10741;52.272;9.580;2022-09-02T06:16:39;12.60;99.90
21167;DHT22;10741;52.272;9.580;2022-09-02T06:19:05;12.70;99.90
21167;DHT22;10741;52.272;9.580;2022-09-02T06:21:32;12.90;99.90
21167;DHT22;10741;52.272;9.580;2022-09-02T06:23:58;13.00;99.90
21167;DHT22;10741;52.272;9.580;2022-09-02T06:26:24;13.10;99.90
21167;DHT22;10741;52.272;9.580;2022-09-02T06:28:50;13.20;99.90
21167;DHT22;10741;52.272;9.580;2022-09-02T06:31:21;13.30;99.90
21167;DHT22;10741;52.272;9.580;2022-09-02T06:33:51;13.40;99.90
21167;DHT22;10741;52.272;9.580;2022-09-02T06:36:18;13.50;99.90
21167;DHT22;10741;52.272;9.580;2022-09-02T06:38:46;13.70;99.90
21167;DHT22;10741;52.272;9.580;2022-09-02T06:41:14;13.70;99.90
21167;DHT22;10741;52.272;9.580;2022-09-02T06:43:40;13.80;99.90
21167;DHT22;10741;52.272;9.580;2022-09-02T06:46:07;14.00;99.90
21167;DHT22;10741;52.272;9.580;2022-09-02T06:48:33;14.10;99.90
21167;DHT22;10741;52.272;9.580;2022-09-02T06:50:59;14.20;99.90
21167;DHT22;10741;52.272;9.580;2022-09-02T06:53:26;14.30;99.90
21167;DHT22;10741;52.272;9.580;2022-09-02T06:55:54;14.40;99.90
21167;DHT22;10741;52.272;9.580;2022-09-02T06:58:20;14.60;99.90
21167;DHT22;10741;52.272;9.580;2022-09-02T07:00:45;14.70;99.90
21167;DHT22;10741;52.272;9.580;2022-09-02T07:03:11;14.80;99.90
21167;DHT22;10741;52.272;9.580;2022-09-02T07:06:13;15.00;99.90
21167;DHT22;10741;52.272;9.580;2022-09-02T07:08:41;15.20;99.90
21167;DHT22;10741;52.272;9.580;2022-09-02T07:11:16;15.40;99.90
21167;DHT22;10741;52.272;9.580;2022-09-02T07:13:42;15.50;99.90
21167;DHT22;10741;52.272;9.580;2022-09-02T07:16:08;15.60;99.90
21167;DHT22;10741;52.272;9.580;2022-09-02T07:18:34;15.70;99.90
21167;DHT22;10741;52.272;9.580;2022-09-02T07:21:00;15.70;99.90
21167;DHT22;10741;52.272;9.580;2022-09-02T07:23:27;15.80;99.90
21167;DHT22;10741;52.272;9.580;2022-09-02T07:25:52;16.00;99.90
21167;DHT22;10741;52.272;9.580;2022-09-02T07:28:21;16.10;99.90
21167;DHT22;10741;52.272;9.580;2022-09-02T07:30:47;16.30;99.90
21167;DHT22;10741;52.272;9.580;2022-09-02T07:33:14;16.50;99.90
21167;DHT22;10741;52.272;9.580;2022-09-02T07:35:43;16.80;99.90
21167;DHT22;10741;52.272;9.580;2022-09-02T07:38:10;17.20;99.90
21167;DHT22;10741;52.272;9.580;2022-09-02T07:40:38;17.50;99.90
21167;DHT22;10741;52.272;9.580;2022-09-02T07:43:06;17.80;99.90
21167;DHT22;10741;52.272;9.580;2022-09-02T07:45:33;18.20;99.90
21167;DHT22;10741;52.272;9.580;2022-09-02T07:48:00;18.60;99.90
21167;DHT22;10741;52.272;9.580;2022-09-02T07:50:27;18.90;99.90
21167;DHT22;10741;52.272;9.580;2022-09-02T07:52:57;19.20;99.90
21167;DHT22;10741;52.272;9.580;2022-09-02T07:55:24;19.60;99.90
21167;DHT22;10741;52.272;9.580;2022-09-02T07:57:50;20.10;98.40
21167;DHT22;10741;52.272;9.580;2022-09-02T08:00:19;20.10;96.60
21167;DHT22;10741;52.272;9.580;2022-09-02T08:02:45;20.30;97.20
21167;DHT22;10741;52.272;9.580;2022-09-02T08:05:12;20.20;96.90
21167;DHT22;10741;52.272;9.580;2022-09-02T08:07:38;20.10;96.70
21167;DHT22;10741;52.272;9.580;2022-09-02T08:10:07;19.80;97.30
21167;DHT22;10741;52.272;9.580;2022-09-02T08:12:35;19.70;97.40
21167;DHT22;10741;52.272;9.580;2022-09-02T08:15:02;19.70;97.60
21167;DHT22;10741;52.272;9.580;2022-09-02T08:17:28;19.80;97.20
21167;DHT22;10741;52.272;9.580;2022-09-02T08:19:54;20.20;97.30
21167;DHT22;10741;52.272;9.580;2022-09-02T08:22:19;20.40;95.90
21167;DHT22;10741;52.272;9.580;2022-09-02T08:24:45;20.70;95.40
21167;DHT22;10741;52.272;9.580;2022-09-02T08:27:11;20.40;95.80
21167;DHT22;10741;52.272;9.580;2022-09-02T08:29:37;20.70;95.30
21167;DHT22;10741;52.272;9.580;2022-09-02T08:32:03;20.80;95.80
21167;DHT22;10741;52.272;9.580;2022-09-02T08:34:28;21.40;94.50
21167;DHT22;10741;52.272;9.580;2022-09-02T08:36:55;22.00;92.50
21167;DHT22;10741;52.272;9.580;2022-09-02T08:39:21;22.40;92.20
21167;DHT22;10741;52.272;9.580;2022-09-02T08:41:58;22.60;91.20
21167;DHT22;10741;52.272;9.580;2022-09-02T08:44:26;22.80;90.90
21167;DHT22;10741;52.272;9.580;2022-09-02T08:46:57;22.90;90.80
21167;DHT22;10741;52.272;9.580;2022-09-02T08:49:40;23.10;90.90
21167;DHT22;10741;52.272;9.580;2022-09-02T08:52:07;23.30;88.50
21167;DHT22;10741;52.272;9.580;2022-09-02T08:57:07;22.60;91.00
21167;DHT22;10741;52.272;9.580;2022-09-02T08:59:34;22.30;91.40
21167;DHT22;10741;52.272;9.580;2022-09-02T09:02:06;22.20;91.60
21167;DHT22;10741;52.272;9.580;2022-09-02T09:17:46;21.80;92.20
21167;DHT22;10741;52.272;9.580;2022-09-02T09:20:21;21.70;92.10
21167;DHT22;10741;52.272;9.580;2022-09-02T09:22:50;21.50;91.80
21167;DHT22;10741;52.272;9.580;2022-09-02T09:25:17;21.40;91.40
21167;DHT22;10741;52.272;9.580;2022-09-02T09:27:43;21.40;92.20
21167;DHT22;10741;52.272;9.580;2022-09-02T09:30:12;21.30;91.90
21167;DHT22;10741;52.272;9.580;2022-09-02T09:32:48;21.50;91.70
21167;DHT22;10741;52.272;9.580;2022-09-02T09:35:17;21.60;91.10
21167;DHT22;10741;52.272;9.580;2022-09-02T09:37:50;21.50;91.20
21167;DHT22;10741;52.272;9.580;2022-09-02T09:42:50;21.50;90.60
21167;DHT22;10741;52.272;9.580;2022-09-02T09:45:24;21.40;90.40
21167;DHT22;10741;52.272;9.580;2022-09-02T09:50:32;21.30;90.50
21167;DHT22;10741;52.272;9.580;2022-09-02T09:53:17;21.30;90.30
21167;DHT22;10741;52.272;9.580;2022-09-02T09:56:01;21.30;90.40
21167;DHT22;10741;52.272;9.580;2022-09-02T10:06:23;21.40;88.50
21167;DHT22;10741;52.272;9.580;2022-09-02T10:08:57;21.50;89.40
21167;DHT22;10741;52.272;9.580;2022-09-02T10:11:26;21.60;89.70
21167;DHT22;10741;52.272;9.580;2022-09-02T10:14:18;21.60;88.20
21167;DHT22;10741;52.272;9.580;2022-09-02T10:17:05;21.60;87.60
21167;DHT22;10741;52.272;9.580;2022-09-02T10:20:04;21.70;87.20
21167;DHT22;10741;52.272;9.580;2022-09-02T10:25:04;21.70;88.60
21167;DHT22;10741;52.272;9.580;2022-09-02T10:30:19;21.70;86.00
21167;DHT22;10741;52.272;9.580;2022-09-02T10:35:24;21.90;86.60
21167;DHT22;10741;52.272;9.580;2022-09-02T10:40:43;22.10;85.70
21167;DHT22;10741;52.272;9.580;2022-09-02T10:43:42;22.00;84.50
21167;DHT22;10741;52.272;9.580;2022-09-02T10:46:16;22.00;84.50
21167;DHT22;10741;52.272;9.580;2022-09-02T10:53:59;22.20;84.00
21167;DHT22;10741;52.272;9.580;2022-09-02T10:56:36;22.20;82.50
21167;DHT22;10741;52.272;9.580;2022-09-02T10:59:17;22.50;81.70
21167;DHT22;10741;52.272;9.580;2022-09-02T11:01:50;22.60;82.00
21167;DHT22;10741;52.272;9.580;2022-09-02T11:06:55;22.90;79.60
21167;DHT22;10741;52.272;9.580;2022-09-02T11:09:42;22.90;78.70
21167;DHT22;10741;52.272;9.580;2022-09-02T11:12:13;22.80;79.50
21167;DHT22;10741;52.272;9.580;2022-09-02T11:20:13;22.80;79.00
21167;DHT22;10741;52.272;9.580;2022-09-02T11:26:10;22.50;80.40
21167;DHT22;10741;52.272;9.580;2022-09-02T11:28:43;22.60;79.00
21167;DHT22;10741;52.272;9.580;2022-09-02T11:31:25;23.20;77.10
21167;DHT22;10741;52.272;9.580;2022-09-02T11:36:40;24.70;73.50
21167;DHT22;10741;52.272;9.580;2022-09-02T11:41:55;26.20;67.80
21167;DHT22;10741;52.272;9.580;2022-09-02T11:45:23;26.90;67.20
21167;DHT22;10741;52.272;9.580;2022-09-02T11:47:39;27.20;64.20
21167;DHT22;10741;52.272;9.580;2022-09-02T11:53:19;27.60;64.80
21167;DHT22;10741;52.272;9.580;2022-09-02T11:56:02;27.80;61.90
21167;DHT22;10741;52.272;9.580;2022-09-02T11:58:41;26.90;63.70
21167;DHT22;10741;52.272;9.580;2022-09-02T12:06:24;24.80;66.80
21167;DHT22;10741;52.272;9.580;2022-09-02T12:14:03;23.90;72.80
21167;DHT22;10741;52.272;9.580;2022-09-02T12:21:26;23.40;70.90
21167;DHT22;10741;52.272;9.580;2022-09-02T12:31:48;25.40;65.30
21167;DHT22;10741;52.272;9.580;2022-09-02T12:36:51;24.50;68.30
21167;DHT22;10741;52.272;9.580;2022-09-02T12:50:08;25.80;65.90
21167;DHT22;10741;52.272;9.580;2022-09-02T12:55:28;27.50;61.50
21167;DHT22;10741;52.272;9.580;2022-09-02T13:14:57;28.30;59.60
21167;DHT22;10741;52.272;9.580;2022-09-02T13:20:35;28.20;59.80
21167;DHT22;10741;52.272;9.580;2022-09-02T13:32:14;28.70;59.00
21167;DHT22;10741;52.272;9.580;2022-09-02T13:34:48;28.40;57.00
21167;DHT22;10741;52.272;9.580;2022-09-02T13:37:28;27.30;58.30
21167;DHT22;10741;52.272;9.580;2022-09-02T13:39:54;27.10;60.30
21167;DHT22;10741;52.272;9.580;2022-09-02T13:42:25;27.20;60.90
21167;DHT22;10741;52.272;9.580;2022-09-02T13:45:09;27.50;60.80
21167;DHT22;10741;52.272;9.580;2022-09-02T13:47:36;26.90;61.50
21167;DHT22;10741;52.272;9.580;2022-09-02T13:50:04;26.20;62.60
21167;DHT22;10741;52.272;9.580;2022-09-02T13:52:30;25.60;63.50
21167;DHT22;10741;52.272;9.580;2022-09-02T13:54:57;25.20;65.00
21167;DHT22;10741;52.272;9.580;2022-09-02T13:57:26;26.10;64.30
21167;DHT22;10741;52.272;9.580;2022-09-02T13:59:55;26.70;62.40
21167;DHT22;10741;52.272;9.580;2022-09-02T14:02:32;27.80;60.40
21167;DHT22;10741;52.272;9.580;2022-09-02T14:05:05;27.80;59.80
21167;DHT22;10741;52.272;9.580;2022-09-02T14:07:34;27.00;60.00
21167;DHT22;10741;52.272;9.580;2022-09-02T14:10:05;26.50;61.80
21167;DHT22;10741;52.272;9.580;2022-09-02T14:12:33;26.10;61.60
21167;DHT22;10741;52.272;9.580;2022-09-02T14:14:59;25.80;61.60
21167;DHT22;10741;52.272;9.580;2022-09-02T14:17:26;26.10;61.70
21167;DHT22;10741;52.272;9.580;2022-09-02T14:22:40;26.00;62.50
21167;DHT22;10741;52.272;9.580;2022-09-02T14:25:14;25.80;63.00
21167;DHT22;10741;52.272;9.580;2022-09-02T14:27:54;25.30;63.10
21167;DHT22;10741;52.272;9.580;2022-09-02T14:30:39;25.20;62.80
21167;DHT22;10741;52.272;9.580;2022-09-02T14:38:55;25.90;61.80
21167;DHT22;10741;52.272;9.580;2022-09-02T14:41:29;25.70;61.40
21167;DHT22;10741;52.272;9.580;2022-09-02T14:44:10;25.40;63.10
21167;DHT22;10741;52.272;9.580;2022-09-02T14:46:47;24.90;62.70
21167;DHT22;10741;52.272;9.580;2022-09-02T14:49:36;24.40;64.20
21167;DHT22;10741;52.272;9.580;2022-09-02T14:54:43;23.80;65.40
21167;DHT22;10741;52.272;9.580;2022-09-02T14:59:57;23.70;65.50
21167;DHT22;10741;52.272;9.580;2022-09-02T15:02:30;23.70;65.50
21167;DHT22;10741;52.272;9.580;2022-09-02T15:04:59;23.90;65.00
21167;DHT22;10741;52.272;9.580;2022-09-02T15:07:25;24.20;64.40
21167;DHT22;10741;52.272;9.580;2022-09-02T15:09:51;24.30;65.00
21167;DHT22;10741;52.272;9.580;2022-09-02T15:12:29;24.20;64.60
21167;DHT22;10741;52.272;9.580;2022-09-02T15:14:56;23.90;64.90
21167;DHT22;10741;52.272;9.580;2022-09-02T15:17:23;23.70;64.50
21167;DHT22;10741;52.272;9.580;2022-09-02T15:19:49;23.60;65.40
21167;DHT22;10741;52.272;9.580;2022-09-02T15:22:15;23.60;65.90
21167;DHT22;10741;52.272;9.580;2022-09-02T15:24:42;23.60;65.60
21167;DHT22;10741;52.272;9.580;2022-09-02T15:27:12;23.60;65.30
21167;DHT22;10741;52.272;9.580;2022-09-02T15:29:38;23.70;65.70
21167;DHT22;10741;52.272;9.580;2022-09-02T15:32:04;24.10;65.40
21167;DHT22;10741;52.272;9.580;2022-09-02T15:34:31;24.30;63.20
21167;DHT22;10741;52.272;9.580;2022-09-02T15:36:57;24.40;64.20
21167;DHT22;10741;52.272;9.580;2022-09-02T15:39:23;24.20;63.40
21167;DHT22;10741;52.272;9.580;2022-09-02T15:41:50;24.10;64.60
21167;DHT22;10741;52.272;9.580;2022-09-02T15:44:18;24.20;64.10
21167;DHT22;10741;52.272;9.580;2022-09-02T15:46:44;23.90;65.50
21167;DHT22;10741;52.272;9.580;2022-09-02T15:49:12;23.70;65.00
21167;DHT22;10741;52.272;9.580;2022-09-02T15:51:42;23.60;64.50
21167;DHT22;10741;52.272;9.580;2022-09-02T15:54:11;23.50;65.70
21167;DHT22;10741;52.272;9.580;2022-09-02T15:56:38;23.40;65.60
21167;DHT22;10741;52.272;9.580;2022-09-02T15:59:12;23.30;65.40
21167;DHT22;10741;52.272;9.580;2022-09-02T16:01:49;23.20;66.90
21167;DHT22;10741;52.272;9.580;2022-09-02T16:04:15;23.10;65.90
21167;DHT22;10741;52.272;9.580;2022-09-02T16:06:44;23.00;65.90
21167;DHT22;10741;52.272;9.580;2022-09-02T16:09:12;23.00;66.50
21167;DHT22;10741;52.272;9.580;2022-09-02T16:11:44;22.90;66.30
21167;DHT22;10741;52.272;9.580;2022-09-02T16:14:11;22.80;66.60
21167;DHT22;10741;52.272;9.580;2022-09-02T16:16:37;22.70;66.40
21167;DHT22;10741;52.272;9.580;2022-09-02T16:19:05;22.70;67.10
21167;DHT22;10741;52.272;9.580;2022-09-02T16:21:32;22.70;66.60
21167;DHT22;10741;52.272;9.580;2022-09-02T16:23:58;22.70;66.40
21167;DHT22;10741;52.272;9.580;2022-09-02T16:26:28;22.70;66.80
21167;DHT22;10741;52.272;9.580;2022-09-02T16:28:56;22.70;67.10
21167;DHT22;10741;52.272;9.580;2022-09-02T16:31:25;22.70;67.40
21167;DHT22;10741;52.272;9.580;2022-09-02T16:33:53;22.70;65.90
21167;DHT22;10741;52.272;9.580;2022-09-02T16:36:20;22.60;66.20
21167;DHT22;10741;52.272;9.580;2022-09-02T16:38:46;22.50;66.40
21167;DHT22;10741;52.272;9.580;2022-09-02T16:41:39;22.50;66.50
21167;DHT22;10741;52.272;9.580;2022-09-02T16:44:17;22.40;67.30
21167;DHT22;10741;52.272;9.580;2022-09-02T16:46:44;22.40;66.70
21167;DHT22;10741;52.272;9.580;2022-09-02T16:49:13;22.40;67.50
21167;DHT22;10741;52.272;9.580;2022-09-02T16:51:40;22.30;67.20
21167;DHT22;10741;52.272;9.580;2022-09-02T16:54:07;22.20;67.20
21167;DHT22;10741;52.272;9.580;2022-09-02T16:56:33;22.20;67.40
21167;DHT22;10741;52.272;9.580;2022-09-02T16:59:02;22.20;67.10
21167;DHT22;10741;52.272;9.580;2022-09-02T17:01:29;22.20;67.80
21167;DHT22;10741;52.272;9.580;2022-09-02T17:03:55;22.10;68.50
21167;DHT22;10741;52.272;9.580;2022-09-02T17:06:21;22.10;68.60
21167;DHT22;10741;52.272;9.580;2022-09-02T17:08:47;22.10;67.80
21167;DHT22;10741;52.272;9.580;2022-09-02T17:13:53;21.90;68.90
21167;DHT22;10741;52.272;9.580;2022-09-02T17:16:22;21.80;68.90
21167;DHT22;10741;52.272;9.580;2022-09-02T17:18:48;21.80;69.10
21167;DHT22;10741;52.272;9.580;2022-09-02T17:21:36;21.70;69.50
21167;DHT22;10741;52.272;9.580;2022-09-02T17:24:01;21.60;69.90
21167;DHT22;10741;52.272;9.580;2022-09-02T17:26:28;21.50;70.70
21167;DHT22;10741;52.272;9.580;2022-09-02T17:28:56;21.40;69.70
21167;DHT22;10741;52.272;9.580;2022-09-02T17:31:31;21.20;71.30
21167;DHT22;10741;52.272;9.580;2022-09-02T17:33:59;21.20;70.30
21167;DHT22;10741;52.272;9.580;2022-09-02T17:36:27;21.10;71.70
21167;DHT22;10741;52.272;9.580;2022-09-02T17:38:58;21.00;71.20
21167;DHT22;10741;52.272;9.580;2022-09-02T17:41:25;21.00;70.90
21167;DHT22;10741;52.272;9.580;2022-09-02T17:44:10;20.90;72.10
21167;DHT22;10741;52.272;9.580;2022-09-02T17:46:37;20.80;72.20
21167;DHT22;10741;52.272;9.580;2022-09-02T17:49:03;20.80;71.00
21167;DHT22;10741;52.272;9.580;2022-09-02T17:51:29;20.80;70.60
21167;DHT22;10741;52.272;9.580;2022-09-02T17:53:55;20.80;70.60
21167;DHT22;10741;52.272;9.580;2022-09-02T17:59:10;20.70;70.90
21167;DHT22;10741;52.272;9.580;2022-09-02T18:09:59;20.50;71.50
21167;DHT22;10741;52.272;9.580;2022-09-02T18:12:26;20.40;71.50
21167;DHT22;10741;52.272;9.580;2022-09-02T18:14:58;20.30;71.60
21167;DHT22;10741;52.272;9.580;2022-09-02T18:20:26;20.10;72.30
21167;DHT22;10741;52.272;9.580;2022-09-02T18:26:20;20.00;72.60
21167;DHT22;10741;52.272;9.580;2022-09-02T18:45:20;19.50;75.10